East Flat Rock, NC (28726)

17:13 EDT je la 01an de aprilo 2015 (GMT -0400)
Johnson Field Airport | | Change Station
CLOSE
Current Station
Personaj Veter-Stacioj
Location: Hendersonville, NC
Alteco: 2103 ft
Najbaraj veter-stacioj

Elev 2103 ft 35.31 °N, 82.43 °W | Updated 8 seconds ago

Sennuba
Sennuba
73.9 °F
Sentas kiel 75 °F
N
1.1
Vento Varianta Vento from SOk
Gusts 2.0 mej/h

hodiaŭ
High -- | Low -- °F
--% Ebla precip.
hieraŭ
High -- | Low -- °F
Precip. -- co
7:16 AM 7:50 PM
Kreskanta Lunĝibo, 94% visible
Aerpremo 30.06 co
Vidodistanco 10.0 mejloj
Nuboj Sennuba
Varmindico 75 °F
Rosopunkto 25 °F
Humido 16%
Pluvokvanto 0.00 co
Neĝprofundo Not available.
UV 4 out of 12
Pollen 10.50 out of 12
Aerkvalito Not available.
Flu Activity Not available.
METAR KAVL 012054Z 31006KT 10SM CLR 22/M07 A3006

More Conditions Fewer Conditions

Aerpremo 30.06 co
Vidodistanco 10.0 mejloj
Nuboj Sennuba
Varmindico 75 °F
Rosopunkto 25 °F
Humido 16%
Pluvokvanto 0.00 co
Neĝprofundo Not available.
UV 4 out of 12
Pollen 10.50 out of 12
Aerkvalito Not available.
Flu Activity Not available.
METAR KAVL 012054Z 31006KT 10SM CLR 22/M07 A3006

More Conditions Fewer Conditions

10-Day Weather Forecast

Almanac

Astronomio

Apr. 01, 2015 Leviĝo Subiro
Aktuala tempo
Civila krepusko
Naŭtika krepusko
Astronomia krepusko
Luno
Daŭro de videbla lumo
Daŭro de tago
Tomorrow will be .
, % of the Moon is Illuminated

Hodiaŭaj ekstremaĵoj

State Highs State Lows

Community

WunderPhotos

Upload Photos

1,810,088 photos uploaded!

WunderBlogs® & News

Nearby

Aerkvalito

  Aerkvalito Aerkvalita indico Poluanto
Not available.

Neĝa profundeco

Station Depth Alteco

Earthquake Activity

Urbo Distance Mag. Time & Date
Minimum magnitude displayed is 2.5.

Coastal Water Temperatures

Loko Temperaturo

Stations

Najbaraj veter-stacioj

Loko de stacio Temp Venta
kvazaŭtemperaturo
Rosopunkto Humido Vento Precip. Elev Ĝisdatigita je Tipo